createdAt,value
2018-12-09T00:00:07.742Z,1002.77726159
2018-12-09T00:00:20.276Z,1002.77726159
2018-12-09T00:00:32.721Z,1002.77726159
2018-12-09T00:00:45.058Z,1002.77726159
2018-12-09T00:00:57.421Z,1002.77726159
2018-12-09T00:01:09.759Z,1002.67566994
2018-12-09T00:01:22.091Z,1002.67566994
2018-12-09T00:01:34.429Z,1002.67566994
2018-12-09T00:01:46.801Z,1002.67566994
2018-12-09T00:01:59.223Z,1002.67566994
2018-12-09T00:02:12.042Z,1002.60794218
2018-12-09T00:02:24.373Z,1002.60794218
2018-12-09T00:02:36.721Z,1002.60794218
2018-12-09T00:02:49.062Z,1002.60794218
2018-12-09T00:03:03.205Z,1002.60794218
2018-12-09T00:03:15.562Z,1002.60794218
2018-12-09T00:03:27.910Z,1002.60794218
2018-12-09T00:03:40.261Z,1002.60794218
2018-12-09T00:03:52.601Z,1002.60794218
2018-12-09T00:04:04.933Z,1002.60794218
2018-12-09T00:04:17.292Z,1002.60794218
2018-12-09T00:04:29.620Z,1002.60794218
2018-12-09T00:04:41.966Z,1002.60794218
2018-12-09T00:04:54.463Z,1002.60794218
2018-12-09T00:05:06.845Z,1002.5740783
2018-12-09T00:05:19.179Z,1002.5740783
2018-12-09T00:05:31.524Z,1002.5740783
2018-12-09T00:05:43.942Z,1002.5740783
2018-12-09T00:05:56.279Z,1002.5740783
2018-12-09T00:06:08.619Z,1002.50635054
2018-12-09T00:06:21.061Z,1002.50635054
2018-12-09T00:06:33.407Z,1002.50635054
2018-12-09T00:06:45.734Z,1002.50635054
2018-12-09T00:06:58.076Z,1002.50635054
2018-12-09T00:07:10.423Z,1002.43862277
2018-12-09T00:07:22.758Z,1002.43862277
2018-12-09T00:07:35.143Z,1002.43862277
2018-12-09T00:07:47.477Z,1002.43862277
2018-12-09T00:07:59.888Z,1002.43862277
2018-12-09T00:08:12.231Z,1002.50635054
2018-12-09T00:08:24.609Z,1002.50635054
2018-12-09T00:08:37.067Z,1002.50635054
2018-12-09T00:08:49.418Z,1002.50635054
2018-12-09T00:09:01.756Z,1002.43862277
2018-12-09T00:09:14.294Z,1002.43862277
2018-12-09T00:09:26.741Z,1002.43862277
2018-12-09T00:09:39.103Z,1002.43862277
2018-12-09T00:09:51.472Z,1002.43862277
2018-12-09T00:10:03.812Z,1002.37089501
2018-12-09T00:10:16.162Z,1002.37089501
2018-12-09T00:10:28.510Z,1002.37089501
2018-12-09T00:10:40.857Z,1002.37089501
2018-12-09T00:10:53.197Z,1002.37089501
2018-12-09T00:11:05.519Z,1002.30316725
2018-12-09T00:11:17.876Z,1002.30316725
2018-12-09T00:11:30.235Z,1002.30316725
2018-12-09T00:11:42.603Z,1002.30316725
2018-12-09T00:11:55.160Z,1002.30316725
2018-12-09T00:12:07.500Z,1002.23543948
2018-12-09T00:12:19.864Z,1002.23543948
2018-12-09T00:12:32.199Z,1002.23543948
2018-12-09T00:12:44.548Z,1002.23543948
2018-12-09T00:12:56.893Z,1002.23543948
2018-12-09T00:13:09.234Z,1002.33703113
2018-12-09T00:13:21.655Z,1002.33703113
2018-12-09T00:13:34.030Z,1002.33703113
2018-12-09T00:13:46.382Z,1002.33703113
2018-12-09T00:13:58.742Z,1002.33703113
2018-12-09T00:14:11.080Z,1002.30316725
2018-12-09T00:14:23.418Z,1002.30316725
2018-12-09T00:14:35.773Z,1002.30316725
2018-12-09T00:14:48.103Z,1002.30316725
2018-12-09T00:15:00.615Z,1002.26930336
2018-12-09T00:15:12.999Z,1002.26930336
2018-12-09T00:15:25.345Z,1002.26930336
2018-12-09T00:15:37.743Z,1002.26930336
2018-12-09T00:15:50.076Z,1002.26930336
2018-12-09T00:16:02.414Z,1002.2015756
2018-12-09T00:16:14.780Z,1002.2015756
2018-12-09T00:16:27.241Z,1002.2015756
2018-12-09T00:16:39.583Z,1002.2015756
2018-12-09T00:16:51.914Z,1002.2015756
2018-12-09T00:17:04.255Z,1002.16771172
2018-12-09T00:17:16.627Z,1002.16771172
2018-12-09T00:17:28.957Z,1002.16771172
2018-12-09T00:17:41.304Z,1002.16771172
2018-12-09T00:17:53.744Z,1002.16771172
2018-12-09T00:18:06.073Z,1002.13384784
2018-12-09T00:18:18.413Z,1002.13384784
2018-12-09T00:18:30.764Z,1002.13384784
2018-12-09T00:18:43.096Z,1002.13384784
2018-12-09T00:18:55.709Z,1002.13384784
2018-12-09T00:19:08.106Z,1002.13384784
2018-12-09T00:19:20.468Z,1002.13384784
2018-12-09T00:19:32.838Z,1002.13384784
2018-12-09T00:19:45.325Z,1002.13384784
2018-12-09T00:19:57.652Z,1002.13384784
2018-12-09T00:20:09.988Z,1002.13384784
2018-12-09T00:20:22.328Z,1002.13384784
2018-12-09T00:20:34.668Z,1002.13384784
2018-12-09T00:20:47.013Z,1002.13384784
2018-12-09T00:20:59.360Z,1002.13384784
2018-12-09T00:21:11.718Z,1002.06612008
2018-12-09T00:21:24.069Z,1002.06612008
2018-12-09T00:21:36.393Z,1002.06612008
2018-12-09T00:21:48.708Z,1002.06612008
2018-12-09T00:22:01.030Z,1002.03225619
2018-12-09T00:22:13.467Z,1002.03225619
2018-12-09T00:22:25.802Z,1002.03225619
2018-12-09T00:22:38.170Z,1002.03225619
2018-12-09T00:22:50.624Z,1002.03225619
2018-12-09T00:23:02.964Z,1001.99839231
2018-12-09T00:23:15.313Z,1001.99839231
2018-12-09T00:23:27.746Z,1001.99839231
2018-12-09T00:23:40.090Z,1001.99839231
2018-12-09T00:23:52.447Z,1001.99839231
2018-12-09T00:24:04.785Z,1001.99839231
2018-12-09T00:24:17.207Z,1001.99839231
2018-12-09T00:24:29.556Z,1001.99839231
2018-12-09T00:24:41.923Z,1001.99839231
2018-12-09T00:24:54.582Z,1001.99839231
2018-12-09T00:25:07.004Z,1001.89680067
2018-12-09T00:25:19.358Z,1001.89680067
2018-12-09T00:25:31.751Z,1001.89680067
2018-12-09T00:25:44.090Z,1001.89680067
2018-12-09T00:25:56.422Z,1001.89680067
2018-12-09T00:26:08.758Z,1001.93066455
2018-12-09T00:26:21.269Z,1001.93066455
2018-12-09T00:26:33.596Z,1001.93066455
2018-12-09T00:26:46.046Z,1001.93066455
2018-12-09T00:26:58.390Z,1001.93066455
2018-12-09T00:27:10.724Z,1001.93066455
2018-12-09T00:27:23.061Z,1001.93066455
2018-12-09T00:27:35.395Z,1001.93066455
2018-12-09T00:27:47.714Z,1001.93066455
2018-12-09T00:28:00.235Z,1001.93066455
2018-12-09T00:28:12.580Z,1001.86293679
2018-12-09T00:28:24.913Z,1001.86293679
2018-12-09T00:28:37.443Z,1001.86293679
2018-12-09T00:28:49.915Z,1001.86293679
2018-12-09T00:29:02.347Z,1001.8290729
2018-12-09T00:29:14.675Z,1001.8290729
2018-12-09T00:29:27.028Z,1001.8290729
2018-12-09T00:29:39.372Z,1001.8290729
2018-12-09T00:29:51.711Z,1001.8290729
2018-12-09T00:30:04.059Z,1001.79520902
2018-12-09T00:30:16.556Z,1001.79520902
2018-12-09T00:30:28.980Z,1001.79520902
2018-12-09T00:30:41.328Z,1001.79520902
2018-12-09T00:30:53.669Z,1001.79520902
2018-12-09T00:31:06.012Z,1001.72748126
2018-12-09T00:31:18.372Z,1001.72748126
2018-12-09T00:31:30.714Z,1001.72748126
2018-12-09T00:31:43.062Z,1001.72748126
2018-12-09T00:31:55.408Z,1001.72748126
2018-12-09T00:32:07.857Z,1001.76134514
2018-12-09T00:32:20.193Z,1001.76134514
2018-12-09T00:32:32.543Z,1001.76134514
2018-12-09T00:32:44.955Z,1001.76134514
2018-12-09T00:32:57.331Z,1001.76134514
2018-12-09T00:33:09.686Z,1001.69361738
2018-12-09T00:33:22.059Z,1001.69361738
2018-12-09T00:33:34.392Z,1001.69361738
2018-12-09T00:33:46.749Z,1001.69361738
2018-12-09T00:33:59.131Z,1001.69361738
2018-12-09T00:34:11.510Z,1001.72748126
2018-12-09T00:34:23.866Z,1001.72748126
2018-12-09T00:34:36.222Z,1001.72748126
2018-12-09T00:34:48.732Z,1001.72748126
2018-12-09T00:35:01.074Z,1001.55816185
2018-12-09T00:35:13.431Z,1001.55816185
2018-12-09T00:35:25.771Z,1001.55816185
2018-12-09T00:35:38.097Z,1001.55816185
2018-12-09T00:35:50.436Z,1001.55816185
2018-12-09T00:36:02.893Z,1001.59202573
2018-12-09T00:36:15.232Z,1001.59202573
2018-12-09T00:36:27.558Z,1001.59202573
2018-12-09T00:36:39.902Z,1001.59202573
2018-12-09T00:36:52.258Z,1001.59202573
2018-12-09T00:37:04.607Z,1001.52429797
2018-12-09T00:37:17.051Z,1001.52429797
2018-12-09T00:37:29.394Z,1001.52429797
2018-12-09T00:37:41.746Z,1001.52429797
2018-12-09T00:37:54.078Z,1001.52429797
2018-12-09T00:38:06.534Z,1001.59202573
2018-12-09T00:38:18.877Z,1001.59202573
2018-12-09T00:38:31.225Z,1001.59202573
2018-12-09T00:38:43.555Z,1001.59202573
2018-12-09T00:38:55.899Z,1001.59202573
2018-12-09T00:39:08.251Z,1001.49043409
2018-12-09T00:39:20.606Z,1001.49043409
2018-12-09T00:39:32.935Z,1001.49043409
2018-12-09T00:39:45.262Z,1001.49043409
2018-12-09T00:39:57.659Z,1001.49043409
2018-12-09T00:40:09.999Z,1001.45657021
2018-12-09T00:40:22.350Z,1001.45657021
2018-12-09T00:40:34.686Z,1001.45657021
2018-12-09T00:40:47.024Z,1001.45657021
2018-12-09T00:40:59.732Z,1001.45657021
2018-12-09T00:41:12.218Z,1001.38884244
2018-12-09T00:41:24.563Z,1001.38884244
2018-12-09T00:41:36.994Z,1001.38884244
2018-12-09T00:41:49.322Z,1001.38884244
2018-12-09T00:42:01.669Z,1001.38884244
2018-12-09T00:42:14.005Z,1001.38884244
2018-12-09T00:42:26.355Z,1001.38884244
2018-12-09T00:42:46.952Z,1001.38884244
2018-12-09T00:42:59.302Z,1001.38884244
2018-12-09T00:43:11.706Z,1001.38884244
2018-12-09T00:43:24.068Z,1001.38884244
2018-12-09T00:43:36.412Z,1001.38884244
2018-12-09T00:43:48.755Z,1001.38884244
2018-12-09T00:44:01.365Z,1001.42270633
2018-12-09T00:44:13.710Z,1001.42270633
2018-12-09T00:44:26.077Z,1001.42270633
2018-12-09T00:44:40.388Z,1001.42270633
2018-12-09T00:44:52.861Z,1001.42270633
2018-12-09T00:45:05.225Z,1001.2872508
2018-12-09T00:45:17.566Z,1001.2872508
2018-12-09T00:45:29.903Z,1001.2872508
2018-12-09T00:45:42.256Z,1001.2872508
2018-12-09T00:45:54.605Z,1001.2872508
2018-12-09T00:46:06.939Z,1001.2872508
2018-12-09T00:46:19.293Z,1001.2872508
2018-12-09T00:46:31.641Z,1001.2872508
2018-12-09T00:46:43.980Z,1001.2872508
2018-12-09T00:46:56.331Z,1001.2872508
2018-12-09T00:47:08.686Z,1001.25338692
2018-12-09T00:47:21.061Z,1001.25338692
2018-12-09T00:47:33.412Z,1001.25338692
2018-12-09T00:47:45.856Z,1001.25338692
2018-12-09T00:47:58.226Z,1001.25338692
2018-12-09T00:48:10.684Z,1001.2872508
2018-12-09T00:48:23.032Z,1001.2872508
2018-12-09T00:48:35.366Z,1001.2872508
2018-12-09T00:48:47.720Z,1001.2872508
2018-12-09T00:49:00.090Z,1001.2872508
2018-12-09T00:49:12.431Z,1001.25338692
2018-12-09T00:49:24.778Z,1001.25338692
2018-12-09T00:49:37.102Z,1001.25338692
2018-12-09T00:49:49.440Z,1001.25338692
2018-12-09T00:50:02.001Z,1001.15179527
2018-12-09T00:50:14.362Z,1001.15179527
2018-12-09T00:50:26.693Z,1001.15179527
2018-12-09T00:50:39.037Z,1001.15179527
2018-12-09T00:50:51.366Z,1001.15179527
2018-12-09T00:51:03.706Z,1001.15179527
2018-12-09T00:51:16.042Z,1001.15179527
2018-12-09T00:51:28.400Z,1001.15179527
2018-12-09T00:51:40.899Z,1001.15179527
2018-12-09T00:51:53.236Z,1001.15179527
2018-12-09T00:52:05.568Z,1001.15179527
2018-12-09T00:52:17.903Z,1001.15179527
2018-12-09T00:52:30.288Z,1001.15179527
2018-12-09T00:52:43.069Z,1001.15179527
2018-12-09T00:52:55.393Z,1001.15179527
2018-12-09T00:53:07.750Z,1001.15179527
2018-12-09T00:53:20.225Z,1001.15179527
2018-12-09T00:53:32.563Z,1001.15179527
2018-12-09T00:53:44.884Z,1001.15179527
2018-12-09T00:53:57.225Z,1001.15179527
2018-12-09T00:54:09.683Z,1001.11793139
2018-12-09T00:54:22.039Z,1001.11793139
2018-12-09T00:54:34.371Z,1001.11793139
2018-12-09T00:54:46.815Z,1001.11793139
2018-12-09T00:54:59.164Z,1001.11793139
2018-12-09T00:55:11.709Z,1001.08406751
2018-12-09T00:55:24.037Z,1001.08406751
2018-12-09T00:55:36.376Z,1001.08406751
2018-12-09T00:55:48.698Z,1001.08406751
2018-12-09T00:56:01.045Z,1001.05020363
2018-12-09T00:56:13.387Z,1001.05020363
2018-12-09T00:56:25.907Z,1001.05020363
2018-12-09T00:56:38.365Z,1001.05020363
2018-12-09T00:56:50.700Z,1001.05020363
2018-12-09T00:57:03.150Z,1001.01633975
2018-12-09T00:57:15.499Z,1001.01633975
2018-12-09T00:57:27.846Z,1001.01633975
2018-12-09T00:57:40.175Z,1001.01633975
2018-12-09T00:57:52.619Z,1001.01633975
2018-12-09T00:58:04.959Z,1001.05020363
2018-12-09T00:58:17.407Z,1001.05020363
2018-12-09T00:58:29.805Z,1001.05020363
2018-12-09T00:58:42.151Z,1001.05020363
2018-12-09T00:58:54.487Z,1001.05020363
2018-12-09T00:59:06.924Z,1000.94861198
2018-12-09T00:59:19.282Z,1000.94861198
2018-12-09T00:59:31.808Z,1000.94861198
2018-12-09T00:59:44.141Z,1000.94861198
2018-12-09T00:59:56.468Z,1000.94861198
2018-12-09T01:00:08.805Z,1000.94861198
2018-12-09T01:00:21.330Z,1000.94861198
2018-12-09T01:00:33.664Z,1000.94861198
2018-12-09T01:00:46.054Z,1000.94861198
2018-12-09T01:00:58.397Z,1000.94861198
2018-12-09T01:01:10.744Z,1000.9147481
2018-12-09T01:01:23.082Z,1000.9147481
2018-12-09T01:01:35.554Z,1000.9147481
2018-12-09T01:01:47.888Z,1000.9147481
2018-12-09T01:02:00.234Z,1000.9147481
2018-12-09T01:02:12.769Z,1000.98247586
2018-12-09T01:02:25.206Z,1000.98247586
2018-12-09T01:02:37.550Z,1000.98247586
2018-12-09T01:02:51.966Z,1000.98247586
2018-12-09T01:03:04.317Z,1000.84702034
2018-12-09T01:03:16.697Z,1000.84702034
2018-12-09T01:03:29.036Z,1000.84702034
2018-12-09T01:03:41.373Z,1000.84702034
2018-12-09T01:03:53.729Z,1000.84702034
2018-12-09T01:04:06.075Z,1000.84702034
2018-12-09T01:04:18.556Z,1000.84702034
2018-12-09T01:04:30.890Z,1000.84702034
2018-12-09T01:04:43.228Z,1000.84702034
2018-12-09T01:04:55.833Z,1000.84702034
2018-12-09T01:05:08.195Z,1000.84702034
2018-12-09T01:05:20.531Z,1000.84702034
2018-12-09T01:05:32.881Z,1000.84702034
2018-12-09T01:05:45.237Z,1000.84702034
2018-12-09T01:05:57.586Z,1000.84702034
2018-12-09T01:06:09.931Z,1000.84702034
2018-12-09T01:06:22.383Z,1000.84702034
2018-12-09T01:06:34.722Z,1000.84702034
2018-12-09T01:06:47.076Z,1000.84702034
2018-12-09T01:06:59.418Z,1000.84702034
2018-12-09T01:07:11.770Z,1000.71156481
2018-12-09T01:07:24.102Z,1000.71156481
2018-12-09T01:07:36.435Z,1000.71156481
2018-12-09T01:07:48.787Z,1000.71156481
2018-12-09T01:08:01.147Z,1000.77929258
2018-12-09T01:08:13.486Z,1000.77929258
2018-12-09T01:08:25.855Z,1000.77929258
2018-12-09T01:08:38.192Z,1000.77929258
2018-12-09T01:08:50.530Z,1000.77929258
2018-12-09T01:09:02.854Z,1000.64383705
2018-12-09T01:09:15.304Z,1000.64383705
2018-12-09T01:09:27.644Z,1000.64383705
2018-12-09T01:09:40.072Z,1000.64383705
2018-12-09T01:09:52.425Z,1000.64383705
2018-12-09T01:10:04.781Z,1000.60997317
2018-12-09T01:10:17.185Z,1000.60997317
2018-12-09T01:10:29.521Z,1000.60997317
2018-12-09T01:10:41.870Z,1000.60997317
2018-12-09T01:10:54.303Z,1000.60997317
2018-12-09T01:11:06.637Z,1000.5422454
2018-12-09T01:11:18.971Z,1000.5422454
2018-12-09T01:11:31.314Z,1000.5422454
2018-12-09T01:11:43.733Z,1000.5422454
2018-12-09T01:11:56.188Z,1000.5422454
2018-12-09T01:12:08.526Z,1000.5422454
2018-12-09T01:12:20.862Z,1000.5422454
2018-12-09T01:12:33.206Z,1000.5422454
2018-12-09T01:12:45.631Z,1000.5422454
2018-12-09T01:12:58.054Z,1000.5422454
2018-12-09T01:13:10.408Z,1000.57610929
2018-12-09T01:13:22.992Z,1000.57610929
2018-12-09T01:13:35.346Z,1000.57610929
2018-12-09T01:13:47.681Z,1000.57610929
2018-12-09T01:14:00.073Z,1000.57610929
2018-12-09T01:14:12.418Z,1000.40678988
2018-12-09T01:14:24.745Z,1000.40678988
2018-12-09T01:14:37.083Z,1000.40678988
2018-12-09T01:14:49.514Z,1000.40678988
2018-12-09T01:15:02.149Z,1000.372926
2018-12-09T01:15:14.476Z,1000.372926
2018-12-09T01:15:26.814Z,1000.372926
2018-12-09T01:15:39.156Z,1000.372926
2018-12-09T01:15:51.489Z,1000.372926
2018-12-09T01:16:03.821Z,1000.372926
2018-12-09T01:16:16.223Z,1000.372926
2018-12-09T01:16:28.587Z,1000.372926
2018-12-09T01:16:41.049Z,1000.372926
2018-12-09T01:16:53.498Z,1000.372926
2018-12-09T01:17:05.862Z,1000.33906211
2018-12-09T01:17:18.200Z,1000.33906211
2018-12-09T01:17:30.537Z,1000.33906211
2018-12-09T01:17:42.875Z,1000.33906211
2018-12-09T01:17:55.210Z,1000.33906211
2018-12-09T01:18:07.544Z,1000.27133435
2018-12-09T01:18:19.889Z,1000.27133435
2018-12-09T01:18:32.230Z,1000.27133435
2018-12-09T01:18:44.790Z,1000.27133435
2018-12-09T01:18:57.144Z,1000.27133435
2018-12-09T01:19:09.496Z,1000.13587882
2018-12-09T01:19:21.937Z,1000.13587882
2018-12-09T01:19:34.284Z,1000.13587882
2018-12-09T01:19:46.745Z,1000.13587882
2018-12-09T01:19:59.112Z,1000.13587882
2018-12-09T01:20:11.463Z,1000.13587882
2018-12-09T01:20:23.834Z,1000.13587882
2018-12-09T01:20:36.250Z,1000.13587882
2018-12-09T01:20:48.595Z,1000.13587882
2018-12-09T01:21:00.933Z,1000.10201494
2018-12-09T01:21:13.267Z,1000.10201494
2018-12-09T01:21:25.600Z,1000.10201494
2018-12-09T01:21:37.926Z,1000.10201494
2018-12-09T01:21:50.274Z,1000.10201494
2018-12-09T01:22:02.602Z,1000.13587882
2018-12-09T01:22:14.936Z,1000.13587882
2018-12-09T01:22:27.280Z,1000.13587882
2018-12-09T01:22:39.623Z,1000.13587882
2018-12-09T01:22:51.952Z,1000.13587882
2018-12-09T01:23:04.291Z,1000.10201494
2018-12-09T01:23:16.640Z,1000.10201494
2018-12-09T01:23:28.987Z,1000.10201494
2018-12-09T01:23:41.316Z,1000.10201494
2018-12-09T01:23:53.666Z,1000.10201494
2018-12-09T01:24:07.213Z,1000.16974271
2018-12-09T01:24:19.651Z,1000.16974271
2018-12-09T01:24:32.052Z,1000.16974271
2018-12-09T01:24:44.454Z,1000.16974271
2018-12-09T01:24:56.925Z,1000.16974271
2018-12-09T01:25:10.447Z,1000.06815106
2018-12-09T01:25:22.911Z,1000.06815106
2018-12-09T01:25:35.309Z,1000.06815106
2018-12-09T01:25:47.789Z,1000.06815106
2018-12-09T01:26:00.165Z,1000.06815106
2018-12-09T01:26:13.004Z,999.797240009
2018-12-09T01:26:26.183Z,999.797240009
2018-12-09T01:26:38.576Z,999.797240009
2018-12-09T01:26:51.064Z,999.797240009
2018-12-09T01:27:03.455Z,999.932695535
2018-12-09T01:27:15.836Z,999.932695535
2018-12-09T01:27:29.299Z,999.932695535
2018-12-09T01:27:41.696Z,999.932695535
2018-12-09T01:27:54.144Z,999.932695535
2018-12-09T01:28:06.642Z,999.932695535
2018-12-09T01:28:19.044Z,999.932695535
2018-12-09T01:28:32.546Z,999.932695535
2018-12-09T01:28:45.219Z,999.932695535
2018-12-09T01:28:57.642Z,999.932695535
2018-12-09T01:29:10.021Z,999.763376127
2018-12-09T01:29:22.439Z,999.763376127
2018-12-09T01:29:35.774Z,999.763376127
2018-12-09T01:29:48.369Z,999.763376127
2018-12-09T01:30:00.794Z,999.797240009
2018-12-09T01:30:13.453Z,999.797240009
2018-12-09T01:30:26.067Z,999.797240009
2018-12-09T01:30:38.633Z,999.797240009
2018-12-09T01:30:52.025Z,999.797240009
2018-12-09T01:31:04.417Z,999.797240009
2018-12-09T01:31:16.817Z,999.797240009
2018-12-09T01:31:29.204Z,999.797240009
2018-12-09T01:31:41.610Z,999.797240009
2018-12-09T01:31:55.052Z,999.797240009
2018-12-09T01:32:07.461Z,999.729512246
2018-12-09T01:32:19.949Z,999.729512246
2018-12-09T01:32:32.468Z,999.729512246
2018-12-09T01:32:44.882Z,999.729512246
2018-12-09T01:32:58.416Z,999.729512246
2018-12-09T01:33:10.803Z,999.729512246
2018-12-09T01:33:23.178Z,999.729512246
2018-12-09T01:33:35.558Z,999.729512246
2018-12-09T01:33:47.940Z,999.729512246
2018-12-09T01:34:00.635Z,999.729512246
2018-12-09T01:34:13.784Z,999.831103891
2018-12-09T01:34:26.196Z,999.831103891
2018-12-09T01:34:38.574Z,999.831103891
2018-12-09T01:34:51.126Z,999.831103891
2018-12-09T01:35:03.527Z,999.797240009
2018-12-09T01:35:17.090Z,999.797240009
2018-12-09T01:35:29.489Z,999.797240009
2018-12-09T01:35:41.871Z,999.797240009
2018-12-09T01:35:54.243Z,999.797240009
2018-12-09T01:36:06.640Z,999.627920601
2018-12-09T01:36:20.056Z,999.627920601
2018-12-09T01:36:32.447Z,999.627920601
2018-12-09T01:36:44.840Z,999.627920601
2018-12-09T01:36:57.225Z,999.627920601
2018-12-09T01:37:09.626Z,999.763376127
2018-12-09T01:37:22.838Z,999.763376127
2018-12-09T01:37:35.562Z,999.763376127
2018-12-09T01:37:47.973Z,999.763376127
2018-12-09T01:38:00.363Z,999.763376127
2018-12-09T01:38:12.752Z,999.627920601
2018-12-09T01:38:25.234Z,999.627920601
2018-12-09T01:38:38.607Z,999.627920601
2018-12-09T01:38:51.019Z,999.627920601
2018-12-09T01:39:03.407Z,999.492465075
2018-12-09T01:39:15.804Z,999.492465075
2018-12-09T01:39:28.216Z,999.492465075
2018-12-09T01:39:41.802Z,999.492465075
2018-12-09T01:39:54.327Z,999.492465075
2018-12-09T01:40:06.735Z,999.594056719
2018-12-09T01:40:19.120Z,999.594056719
2018-12-09T01:40:31.524Z,999.594056719
2018-12-09T01:40:45.037Z,999.594056719
2018-12-09T01:40:57.596Z,999.594056719
2018-12-09T01:41:10.110Z,999.560192838
2018-12-09T01:41:22.605Z,999.560192838
2018-12-09T01:41:34.978Z,999.560192838
2018-12-09T01:41:47.575Z,999.560192838
2018-12-09T01:42:00.747Z,999.560192838
2018-12-09T01:42:13.162Z,999.560192838
2018-12-09T01:42:25.541Z,999.560192838
2018-12-09T01:42:37.937Z,999.560192838
2018-12-09T01:42:50.340Z,999.560192838
2018-12-09T01:43:03.721Z,999.458601193
2018-12-09T01:43:16.129Z,999.458601193
2018-12-09T01:43:28.532Z,999.458601193
2018-12-09T01:43:40.912Z,999.458601193
2018-12-09T01:43:53.283Z,999.458601193
2018-12-09T01:44:06.747Z,999.458601193
2018-12-09T01:44:19.137Z,999.458601193
2018-12-09T01:44:31.643Z,999.458601193
2018-12-09T01:44:44.034Z,999.458601193
2018-12-09T01:44:58.530Z,999.458601193
2018-12-09T01:45:11.754Z,999.357009548
2018-12-09T01:45:24.335Z,999.357009548
2018-12-09T01:45:36.745Z,999.357009548
2018-12-09T01:45:49.146Z,999.357009548
2018-12-09T01:46:01.541Z,999.357009548
2018-12-09T01:46:13.980Z,999.357009548
2018-12-09T01:46:27.291Z,999.357009548
2018-12-09T01:46:39.681Z,999.357009548
2018-12-09T01:46:52.090Z,999.357009548
2018-12-09T01:47:04.579Z,999.424737312
2018-12-09T01:47:16.972Z,999.424737312
2018-12-09T01:47:30.404Z,999.424737312
2018-12-09T01:47:42.835Z,999.424737312
2018-12-09T01:47:55.306Z,999.424737312
2018-12-09T01:48:07.789Z,999.39087343
2018-12-09T01:48:20.220Z,999.39087343
2018-12-09T01:48:33.658Z,999.39087343
2018-12-09T01:48:46.053Z,999.39087343
2018-12-09T01:48:58.454Z,999.39087343
2018-12-09T01:49:10.857Z,999.289281785
2018-12-09T01:49:23.244Z,999.289281785
2018-12-09T01:49:35.975Z,999.289281785
2018-12-09T01:49:48.967Z,999.289281785
2018-12-09T01:50:01.547Z,999.39087343
2018-12-09T01:50:14.045Z,999.39087343
2018-12-09T01:50:26.437Z,999.39087343
2018-12-09T01:50:38.894Z,999.39087343
2018-12-09T01:50:52.409Z,999.39087343
2018-12-09T01:51:04.908Z,999.255417904
2018-12-09T01:51:17.317Z,999.255417904
2018-12-09T01:51:29.749Z,999.255417904
2018-12-09T01:51:42.366Z,999.255417904
2018-12-09T01:51:55.932Z,999.255417904
2018-12-09T01:52:08.356Z,999.221554022
2018-12-09T01:52:20.757Z,999.221554022
2018-12-09T01:52:33.141Z,999.221554022
2018-12-09T01:52:45.849Z,999.221554022
2018-12-09T01:52:59.001Z,999.221554022
2018-12-09T01:53:11.532Z,999.221554022
2018-12-09T01:53:23.937Z,999.221554022
2018-12-09T01:53:36.343Z,999.221554022
2018-12-09T01:53:48.714Z,999.221554022
2018-12-09T01:54:01.126Z,999.153826259
2018-12-09T01:54:14.669Z,999.153826259
2018-12-09T01:54:27.088Z,999.153826259
2018-12-09T01:54:39.476Z,999.153826259
2018-12-09T01:54:52.042Z,999.153826259
2018-12-09T01:55:04.446Z,999.119962377
2018-12-09T01:55:17.831Z,999.119962377
2018-12-09T01:55:30.240Z,999.119962377
2018-12-09T01:55:42.625Z,999.119962377
2018-12-09T01:55:55.017Z,999.119962377
2018-12-09T01:56:07.419Z,999.289281785
2018-12-09T01:56:21.211Z,999.289281785
2018-12-09T01:56:33.700Z,999.289281785
2018-12-09T01:56:46.095Z,999.289281785
2018-12-09T01:56:58.507Z,999.289281785
2018-12-09T01:57:11.079Z,999.119962377
2018-12-09T01:57:23.711Z,999.119962377
2018-12-09T01:57:36.408Z,999.119962377
2018-12-09T01:57:48.816Z,999.119962377
2018-12-09T01:58:01.209Z,999.119962377
2018-12-09T01:58:13.625Z,999.119962377
2018-12-09T01:58:26.103Z,999.119962377
2018-12-09T01:58:39.513Z,999.119962377
2018-12-09T01:58:51.905Z,999.119962377
2018-12-09T01:59:04.317Z,999.153826259
2018-12-09T01:59:16.705Z,999.153826259
2018-12-09T01:59:29.199Z,999.153826259
2018-12-09T01:59:42.545Z,999.153826259
2018-12-09T01:59:54.936Z,999.153826259
2018-12-09T02:00:07.359Z,999.153826259
2018-12-09T02:00:19.955Z,999.153826259
2018-12-09T02:00:32.361Z,999.153826259
2018-12-09T02:00:45.741Z,999.153826259
2018-12-09T02:00:58.378Z,999.153826259
2018-12-09T02:01:10.775Z,999.119962377
2018-12-09T02:01:23.180Z,999.119962377
2018-12-09T02:01:35.578Z,999.119962377
2018-12-09T02:01:47.988Z,999.119962377
2018-12-09T02:02:01.269Z,999.119962377
2018-12-09T02:02:14.034Z,999.119962377
2018-12-09T02:02:26.567Z,999.119962377
2018-12-09T02:02:38.961Z,999.119962377
2018-12-09T02:02:51.346Z,999.119962377
2018-12-09T02:03:04.430Z,999.052234614
2018-12-09T02:03:16.835Z,999.052234614
2018-12-09T02:03:29.217Z,999.052234614
2018-12-09T02:03:41.603Z,999.052234614
2018-12-09T02:03:54.010Z,999.052234614
2018-12-09T02:04:07.670Z,999.119962377
2018-12-09T02:04:20.084Z,999.119962377
2018-12-09T02:04:32.502Z,999.119962377
2018-12-09T02:04:44.901Z,999.119962377
2018-12-09T02:04:57.473Z,999.119962377
2018-12-09T02:05:10.166Z,998.984506851
2018-12-09T02:05:23.191Z,998.984506851
2018-12-09T02:05:35.585Z,998.984506851
2018-12-09T02:05:48.017Z,998.984506851
2018-12-09T02:06:00.441Z,998.984506851
2018-12-09T02:06:12.830Z,998.984506851
2018-12-09T02:06:26.473Z,998.984506851
2018-12-09T02:06:38.973Z,998.984506851
2018-12-09T02:06:51.492Z,998.984506851
2018-12-09T02:07:03.888Z,998.916779088
2018-12-09T02:07:16.295Z,998.916779088
2018-12-09T02:07:29.876Z,998.916779088
2018-12-09T02:07:42.265Z,998.916779088
2018-12-09T02:07:54.726Z,998.916779088
2018-12-09T02:08:07.127Z,998.882915206